sensor_id;sensor_type;location;lat;lon;timestamp;P1;durP1;ratioP1;P2;durP2;ratioP2
76745;SDS011;65671;49.976;20.038;2023-11-22T00:00:12;14.18;;;8.25;;
76745;SDS011;65671;49.976;20.038;2023-11-22T00:02:38;19.25;;;10.05;;
76745;SDS011;65671;49.976;20.038;2023-11-22T00:05:04;23.08;;;11.07;;
76745;SDS011;65671;49.976;20.038;2023-11-22T00:07:34;15.75;;;9.77;;
76745;SDS011;65671;49.976;20.038;2023-11-22T00:09:59;23.85;;;12.27;;
76745;SDS011;65671;49.976;20.038;2023-11-22T00:12:26;26.42;;;13.77;;
76745;SDS011;65671;49.976;20.038;2023-11-22T00:14:52;23.05;;;11.48;;
76745;SDS011;65671;49.976;20.038;2023-11-22T00:19:44;21.67;;;12.48;;
76745;SDS011;65671;49.976;20.038;2023-11-22T00:22:10;20.75;;;11.38;;
76745;SDS011;65671;49.976;20.038;2023-11-22T00:24:40;24.73;;;12.27;;
76745;SDS011;65671;49.976;20.038;2023-11-22T00:27:06;22.40;;;12.70;;
76745;SDS011;65671;49.976;20.038;2023-11-22T00:29:33;25.75;;;13.80;;
76745;SDS011;65671;49.976;20.038;2023-11-22T00:34:25;25.88;;;13.80;;
76745;SDS011;65671;49.976;20.038;2023-11-22T00:36:51;21.98;;;11.80;;
76745;SDS011;65671;49.976;20.038;2023-11-22T00:39:17;25.40;;;12.52;;
76745;SDS011;65671;49.976;20.038;2023-11-22T00:41:43;22.92;;;13.65;;
76745;SDS011;65671;49.976;20.038;2023-11-22T00:44:09;26.30;;;14.10;;
76745;SDS011;65671;49.976;20.038;2023-11-22T00:46:35;25.10;;;12.13;;
76745;SDS011;65671;49.976;20.038;2023-11-22T00:49:02;26.98;;;14.23;;
76745;SDS011;65671;49.976;20.038;2023-11-22T00:51:29;23.33;;;12.77;;
76745;SDS011;65671;49.976;20.038;2023-11-22T00:53:56;27.60;;;13.15;;
76745;SDS011;65671;49.976;20.038;2023-11-22T00:56:22;29.33;;;14.63;;
76745;SDS011;65671;49.976;20.038;2023-11-22T00:58:48;30.05;;;14.07;;
76745;SDS011;65671;49.976;20.038;2023-11-22T01:01:15;24.00;;;13.23;;
76745;SDS011;65671;49.976;20.038;2023-11-22T01:03:41;22.33;;;11.35;;
76745;SDS011;65671;49.976;20.038;2023-11-22T01:06:07;20.00;;;10.68;;
76745;SDS011;65671;49.976;20.038;2023-11-22T01:08:32;23.33;;;11.75;;
76745;SDS011;65671;49.976;20.038;2023-11-22T01:10:58;26.75;;;12.98;;
76745;SDS011;65671;49.976;20.038;2023-11-22T01:13:25;22.40;;;11.95;;
76745;SDS011;65671;49.976;20.038;2023-11-22T01:15:50;26.65;;;14.05;;
76745;SDS011;65671;49.976;20.038;2023-11-22T01:18:15;17.25;;;9.70;;
76745;SDS011;65671;49.976;20.038;2023-11-22T01:20:41;19.08;;;10.07;;
76745;SDS011;65671;49.976;20.038;2023-11-22T01:23:06;19.63;;;11.48;;
76745;SDS011;65671;49.976;20.038;2023-11-22T01:25:32;27.38;;;13.18;;
76745;SDS011;65671;49.976;20.038;2023-11-22T01:27:58;22.70;;;12.48;;
76745;SDS011;65671;49.976;20.038;2023-11-22T01:30:23;26.33;;;12.98;;
76745;SDS011;65671;49.976;20.038;2023-11-22T01:32:49;21.30;;;11.07;;
76745;SDS011;65671;49.976;20.038;2023-11-22T01:35:26;22.58;;;13.35;;
76745;SDS011;65671;49.976;20.038;2023-11-22T01:37:58;16.08;;;9.98;;
76745;SDS011;65671;49.976;20.038;2023-11-22T01:40:24;18.90;;;10.23;;
76745;SDS011;65671;49.976;20.038;2023-11-22T01:42:50;18.42;;;9.77;;
76745;SDS011;65671;49.976;20.038;2023-11-22T01:45:16;21.67;;;11.77;;
76745;SDS011;65671;49.976;20.038;2023-11-22T01:47:42;23.65;;;11.15;;
76745;SDS011;65671;49.976;20.038;2023-11-22T01:50:08;21.77;;;11.02;;
76745;SDS011;65671;49.976;20.038;2023-11-22T01:55:00;14.80;;;8.93;;
76745;SDS011;65671;49.976;20.038;2023-11-22T01:57:30;22.58;;;10.80;;
76745;SDS011;65671;49.976;20.038;2023-11-22T01:59:58;24.80;;;12.55;;
76745;SDS011;65671;49.976;20.038;2023-11-22T02:02:35;22.25;;;11.38;;
76745;SDS011;65671;49.976;20.038;2023-11-22T02:05:01;22.02;;;10.93;;
76745;SDS011;65671;49.976;20.038;2023-11-22T02:07:27;21.90;;;11.38;;
76745;SDS011;65671;49.976;20.038;2023-11-22T02:09:52;21.58;;;10.98;;
76745;SDS011;65671;49.976;20.038;2023-11-22T02:12:18;26.33;;;13.20;;
76745;SDS011;65671;49.976;20.038;2023-11-22T02:14:45;16.33;;;9.18;;
76745;SDS011;65671;49.976;20.038;2023-11-22T02:17:10;20.30;;;10.13;;
76745;SDS011;65671;49.976;20.038;2023-11-22T02:19:37;21.08;;;10.90;;
76745;SDS011;65671;49.976;20.038;2023-11-22T02:22:02;19.85;;;11.52;;
76745;SDS011;65671;49.976;20.038;2023-11-22T02:24:28;23.13;;;9.88;;
76745;SDS011;65671;49.976;20.038;2023-11-22T02:26:54;20.08;;;9.23;;
76745;SDS011;65671;49.976;20.038;2023-11-22T02:29:19;23.40;;;11.43;;
76745;SDS011;65671;49.976;20.038;2023-11-22T02:31:45;25.80;;;12.30;;
76745;SDS011;65671;49.976;20.038;2023-11-22T02:34:11;22.27;;;12.02;;
76745;SDS011;65671;49.976;20.038;2023-11-22T02:36:42;23.25;;;13.65;;
76745;SDS011;65671;49.976;20.038;2023-11-22T02:39:10;24.42;;;11.73;;
76745;SDS011;65671;49.976;20.038;2023-11-22T02:41:38;20.10;;;11.05;;
76745;SDS011;65671;49.976;20.038;2023-11-22T02:44:04;20.52;;;11.52;;
76745;SDS011;65671;49.976;20.038;2023-11-22T02:46:32;20.33;;;11.55;;
76745;SDS011;65671;49.976;20.038;2023-11-22T02:51:24;17.80;;;10.35;;
76745;SDS011;65671;49.976;20.038;2023-11-22T02:53:50;20.65;;;10.90;;
76745;SDS011;65671;49.976;20.038;2023-11-22T02:58:42;19.85;;;9.93;;
76745;SDS011;65671;49.976;20.038;2023-11-22T03:01:07;24.95;;;11.98;;
76745;SDS011;65671;49.976;20.038;2023-11-22T03:03:33;23.58;;;13.13;;
76745;SDS011;65671;49.976;20.038;2023-11-22T03:06:00;26.33;;;12.85;;
76745;SDS011;65671;49.976;20.038;2023-11-22T03:08:25;29.60;;;13.93;;
76745;SDS011;65671;49.976;20.038;2023-11-22T03:10:52;24.58;;;13.05;;
76745;SDS011;65671;49.976;20.038;2023-11-22T03:13:18;26.83;;;13.63;;
76745;SDS011;65671;49.976;20.038;2023-11-22T03:15:43;28.25;;;14.05;;
76745;SDS011;65671;49.976;20.038;2023-11-22T03:18:09;28.75;;;13.20;;
76745;SDS011;65671;49.976;20.038;2023-11-22T03:20:36;20.67;;;12.07;;
76745;SDS011;65671;49.976;20.038;2023-11-22T03:23:02;24.92;;;12.35;;
76745;SDS011;65671;49.976;20.038;2023-11-22T03:25:28;26.35;;;13.48;;
76745;SDS011;65671;49.976;20.038;2023-11-22T03:27:54;26.67;;;12.90;;
76745;SDS011;65671;49.976;20.038;2023-11-22T03:32:45;23.60;;;12.25;;
76745;SDS011;65671;49.976;20.038;2023-11-22T03:35:10;22.80;;;10.55;;
76745;SDS011;65671;49.976;20.038;2023-11-22T03:37:54;18.17;;;10.40;;
76745;SDS011;65671;49.976;20.038;2023-11-22T03:40:19;26.75;;;12.98;;
76745;SDS011;65671;49.976;20.038;2023-11-22T03:42:45;19.50;;;10.60;;
76745;SDS011;65671;49.976;20.038;2023-11-22T03:45:11;20.42;;;10.60;;
76745;SDS011;65671;49.976;20.038;2023-11-22T03:47:38;21.60;;;11.02;;
76745;SDS011;65671;49.976;20.038;2023-11-22T03:50:04;21.77;;;11.40;;
76745;SDS011;65671;49.976;20.038;2023-11-22T03:52:31;27.85;;;12.15;;
76745;SDS011;65671;49.976;20.038;2023-11-22T03:54:56;24.05;;;12.07;;
76745;SDS011;65671;49.976;20.038;2023-11-22T03:57:23;18.08;;;9.85;;
76745;SDS011;65671;49.976;20.038;2023-11-22T03:59:48;20.55;;;10.82;;
76745;SDS011;65671;49.976;20.038;2023-11-22T04:02:14;23.13;;;11.57;;
76745;SDS011;65671;49.976;20.038;2023-11-22T04:04:39;23.38;;;11.80;;
76745;SDS011;65671;49.976;20.038;2023-11-22T04:07:06;19.17;;;11.05;;
76745;SDS011;65671;49.976;20.038;2023-11-22T04:09:33;25.38;;;12.90;;
76745;SDS011;65671;49.976;20.038;2023-11-22T04:11:58;24.05;;;14.07;;
76745;SDS011;65671;49.976;20.038;2023-11-22T04:14:24;24.02;;;12.60;;
76745;SDS011;65671;49.976;20.038;2023-11-22T04:16:52;23.02;;;11.95;;
76745;SDS011;65671;49.976;20.038;2023-11-22T04:19:18;27.52;;;13.10;;
76745;SDS011;65671;49.976;20.038;2023-11-22T04:21:43;27.65;;;12.43;;
76745;SDS011;65671;49.976;20.038;2023-11-22T04:24:09;19.75;;;10.73;;
76745;SDS011;65671;49.976;20.038;2023-11-22T04:26:35;25.08;;;13.45;;
76745;SDS011;65671;49.976;20.038;2023-11-22T04:29:01;23.75;;;13.45;;
76745;SDS011;65671;49.976;20.038;2023-11-22T04:31:27;28.48;;;12.70;;
76745;SDS011;65671;49.976;20.038;2023-11-22T04:33:52;25.77;;;12.02;;
76745;SDS011;65671;49.976;20.038;2023-11-22T04:36:19;20.58;;;11.38;;
76745;SDS011;65671;49.976;20.038;2023-11-22T04:38:44;24.13;;;11.65;;
76745;SDS011;65671;49.976;20.038;2023-11-22T04:41:10;22.92;;;12.13;;
76745;SDS011;65671;49.976;20.038;2023-11-22T04:43:35;24.80;;;12.23;;
76745;SDS011;65671;49.976;20.038;2023-11-22T04:46:02;24.80;;;11.07;;
76745;SDS011;65671;49.976;20.038;2023-11-22T04:48:29;22.55;;;11.38;;
76745;SDS011;65671;49.976;20.038;2023-11-22T04:50:55;25.52;;;12.50;;
76745;SDS011;65671;49.976;20.038;2023-11-22T04:53:20;22.88;;;11.77;;
76745;SDS011;65671;49.976;20.038;2023-11-22T04:55:46;20.55;;;11.43;;
76745;SDS011;65671;49.976;20.038;2023-11-22T04:58:11;22.83;;;11.07;;
76745;SDS011;65671;49.976;20.038;2023-11-22T05:00:37;22.33;;;12.20;;
76745;SDS011;65671;49.976;20.038;2023-11-22T05:03:02;23.25;;;12.88;;
76745;SDS011;65671;49.976;20.038;2023-11-22T05:05:28;23.13;;;11.48;;
76745;SDS011;65671;49.976;20.038;2023-11-22T05:07:53;26.85;;;13.68;;
76745;SDS011;65671;49.976;20.038;2023-11-22T05:10:19;20.63;;;11.73;;
76745;SDS011;65671;49.976;20.038;2023-11-22T05:12:44;26.85;;;12.40;;
76745;SDS011;65671;49.976;20.038;2023-11-22T05:15:10;23.20;;;12.85;;
76745;SDS011;65671;49.976;20.038;2023-11-22T05:17:36;25.20;;;10.90;;
76745;SDS011;65671;49.976;20.038;2023-11-22T05:20:02;22.33;;;11.07;;
76745;SDS011;65671;49.976;20.038;2023-11-22T05:22:29;24.88;;;11.88;;
76745;SDS011;65671;49.976;20.038;2023-11-22T05:24:55;20.65;;;11.50;;
76745;SDS011;65671;49.976;20.038;2023-11-22T05:27:21;24.48;;;12.15;;
76745;SDS011;65671;49.976;20.038;2023-11-22T05:29:46;23.92;;;11.57;;
76745;SDS011;65671;49.976;20.038;2023-11-22T05:32:12;24.25;;;12.07;;
76745;SDS011;65671;49.976;20.038;2023-11-22T05:34:37;21.27;;;11.73;;
76745;SDS011;65671;49.976;20.038;2023-11-22T05:37:05;26.75;;;12.55;;
76745;SDS011;65671;49.976;20.038;2023-11-22T05:39:31;19.75;;;11.20;;
76745;SDS011;65671;49.976;20.038;2023-11-22T05:41:56;18.75;;;9.95;;
76745;SDS011;65671;49.976;20.038;2023-11-22T05:44:22;21.15;;;10.60;;
76745;SDS011;65671;49.976;20.038;2023-11-22T05:46:47;24.58;;;12.63;;
76745;SDS011;65671;49.976;20.038;2023-11-22T05:49:13;24.45;;;11.25;;
76745;SDS011;65671;49.976;20.038;2023-11-22T05:51:38;25.80;;;12.75;;
76745;SDS011;65671;49.976;20.038;2023-11-22T05:54:04;21.17;;;9.90;;
76745;SDS011;65671;49.976;20.038;2023-11-22T05:56:29;22.85;;;10.40;;
76745;SDS011;65671;49.976;20.038;2023-11-22T05:58:56;17.67;;;10.10;;
76745;SDS011;65671;49.976;20.038;2023-11-22T06:01:22;25.27;;;12.73;;
76745;SDS011;65671;49.976;20.038;2023-11-22T06:03:48;23.70;;;11.93;;
76745;SDS011;65671;49.976;20.038;2023-11-22T06:06:13;29.58;;;11.75;;
76745;SDS011;65671;49.976;20.038;2023-11-22T06:08:39;26.55;;;12.95;;
76745;SDS011;65671;49.976;20.038;2023-11-22T06:11:04;35.33;;;14.93;;
76745;SDS011;65671;49.976;20.038;2023-11-22T06:13:30;32.85;;;14.23;;
76745;SDS011;65671;49.976;20.038;2023-11-22T06:15:56;29.40;;;13.80;;
76745;SDS011;65671;49.976;20.038;2023-11-22T06:18:22;33.70;;;13.35;;
76745;SDS011;65671;49.976;20.038;2023-11-22T06:20:54;27.25;;;12.23;;
76745;SDS011;65671;49.976;20.038;2023-11-22T06:23:20;26.88;;;12.75;;
76745;SDS011;65671;49.976;20.038;2023-11-22T06:25:46;24.30;;;11.60;;
76745;SDS011;65671;49.976;20.038;2023-11-22T06:28:11;28.00;;;12.35;;
76745;SDS011;65671;49.976;20.038;2023-11-22T06:30:37;20.65;;;9.82;;
76745;SDS011;65671;49.976;20.038;2023-11-22T06:33:03;19.52;;;9.45;;
76745;SDS011;65671;49.976;20.038;2023-11-22T06:35:28;21.20;;;11.45;;
76745;SDS011;65671;49.976;20.038;2023-11-22T06:38:02;25.60;;;11.48;;
76745;SDS011;65671;49.976;20.038;2023-11-22T06:40:28;24.67;;;11.52;;
76745;SDS011;65671;49.976;20.038;2023-11-22T06:42:55;28.42;;;13.27;;
76745;SDS011;65671;49.976;20.038;2023-11-22T06:45:21;25.70;;;13.68;;
76745;SDS011;65671;49.976;20.038;2023-11-22T06:47:47;21.38;;;12.15;;
76745;SDS011;65671;49.976;20.038;2023-11-22T06:50:12;22.48;;;12.35;;
76745;SDS011;65671;49.976;20.038;2023-11-22T06:55:05;30.75;;;12.88;;
76745;SDS011;65671;49.976;20.038;2023-11-22T06:57:33;28.60;;;13.05;;
76745;SDS011;65671;49.976;20.038;2023-11-22T07:02:26;22.92;;;11.57;;
76745;SDS011;65671;49.976;20.038;2023-11-22T07:04:52;23.38;;;11.63;;
76745;SDS011;65671;49.976;20.038;2023-11-22T07:07:18;25.42;;;11.43;;
76745;SDS011;65671;49.976;20.038;2023-11-22T07:09:44;28.35;;;12.32;;
76745;SDS011;65671;49.976;20.038;2023-11-22T07:12:11;27.48;;;11.70;;
76745;SDS011;65671;49.976;20.038;2023-11-22T07:14:36;25.27;;;12.68;;
76745;SDS011;65671;49.976;20.038;2023-11-22T07:17:02;19.52;;;9.65;;
76745;SDS011;65671;49.976;20.038;2023-11-22T07:19:29;20.55;;;10.05;;
76745;SDS011;65671;49.976;20.038;2023-11-22T07:21:54;24.27;;;11.88;;
76745;SDS011;65671;49.976;20.038;2023-11-22T07:24:20;19.92;;;10.98;;
76745;SDS011;65671;49.976;20.038;2023-11-22T07:26:46;22.08;;;10.70;;
76745;SDS011;65671;49.976;20.038;2023-11-22T07:31:38;20.42;;;9.27;;
76745;SDS011;65671;49.976;20.038;2023-11-22T07:34:04;19.98;;;9.68;;
76745;SDS011;65671;49.976;20.038;2023-11-22T07:36:31;27.35;;;12.05;;
76745;SDS011;65671;49.976;20.038;2023-11-22T07:38:56;20.88;;;9.75;;
76745;SDS011;65671;49.976;20.038;2023-11-22T07:41:22;19.13;;;11.30;;
76745;SDS011;65671;49.976;20.038;2023-11-22T07:43:48;21.77;;;11.75;;
76745;SDS011;65671;49.976;20.038;2023-11-22T07:46:14;17.08;;;9.98;;
76745;SDS011;65671;49.976;20.038;2023-11-22T07:48:42;18.30;;;10.02;;
76745;SDS011;65671;49.976;20.038;2023-11-22T07:51:08;18.67;;;10.10;;
76745;SDS011;65671;49.976;20.038;2023-11-22T07:53:34;16.08;;;9.88;;
76745;SDS011;65671;49.976;20.038;2023-11-22T07:56:00;13.75;;;8.38;;
76745;SDS011;65671;49.976;20.038;2023-11-22T07:58:32;19.33;;;11.07;;
76745;SDS011;65671;49.976;20.038;2023-11-22T08:00:58;20.90;;;9.68;;
76745;SDS011;65671;49.976;20.038;2023-11-22T08:03:24;18.95;;;9.43;;
76745;SDS011;65671;49.976;20.038;2023-11-22T08:05:53;14.77;;;10.18;;
76745;SDS011;65671;49.976;20.038;2023-11-22T08:08:21;18.30;;;9.65;;
76745;SDS011;65671;49.976;20.038;2023-11-22T08:10:48;16.83;;;8.40;;
76745;SDS011;65671;49.976;20.038;2023-11-22T08:13:16;21.95;;;11.38;;
76745;SDS011;65671;49.976;20.038;2023-11-22T08:15:44;19.77;;;9.13;;
76745;SDS011;65671;49.976;20.038;2023-11-22T08:18:11;21.55;;;9.30;;
76745;SDS011;65671;49.976;20.038;2023-11-22T08:20:37;19.45;;;9.73;;
76745;SDS011;65671;49.976;20.038;2023-11-22T08:23:03;19.27;;;10.00;;
76745;SDS011;65671;49.976;20.038;2023-11-22T08:25:31;22.63;;;10.85;;
76745;SDS011;65671;49.976;20.038;2023-11-22T08:27:56;18.55;;;10.32;;
76745;SDS011;65671;49.976;20.038;2023-11-22T08:30:22;21.05;;;8.25;;
76745;SDS011;65671;49.976;20.038;2023-11-22T08:32:48;20.60;;;8.48;;
76745;SDS011;65671;49.976;20.038;2023-11-22T08:35:18;19.75;;;10.25;;
76745;SDS011;65671;49.976;20.038;2023-11-22T08:37:48;16.77;;;9.13;;
76745;SDS011;65671;49.976;20.038;2023-11-22T08:40:15;19.90;;;9.75;;
76745;SDS011;65671;49.976;20.038;2023-11-22T08:42:45;16.13;;;9.02;;
76745;SDS011;65671;49.976;20.038;2023-11-22T08:45:11;15.02;;;8.15;;
76745;SDS011;65671;49.976;20.038;2023-11-22T08:47:37;14.85;;;7.80;;
76745;SDS011;65671;49.976;20.038;2023-11-22T08:50:09;14.90;;;7.50;;
76745;SDS011;65671;49.976;20.038;2023-11-22T08:52:37;14.50;;;8.20;;
76745;SDS011;65671;49.976;20.038;2023-11-22T08:55:05;16.08;;;8.65;;
76745;SDS011;65671;49.976;20.038;2023-11-22T08:57:33;17.50;;;8.77;;
76745;SDS011;65671;49.976;20.038;2023-11-22T09:00:00;18.27;;;8.60;;
76745;SDS011;65671;49.976;20.038;2023-11-22T09:02:33;15.70;;;7.30;;
76745;SDS011;65671;49.976;20.038;2023-11-22T09:05:01;16.23;;;8.93;;
76745;SDS011;65671;49.976;20.038;2023-11-22T09:07:30;20.13;;;8.88;;
76745;SDS011;65671;49.976;20.038;2023-11-22T09:09:56;20.48;;;10.07;;
76745;SDS011;65671;49.976;20.038;2023-11-22T09:12:23;18.77;;;9.23;;
76745;SDS011;65671;49.976;20.038;2023-11-22T09:14:49;13.27;;;8.20;;
76745;SDS011;65671;49.976;20.038;2023-11-22T09:17:14;15.80;;;8.52;;
76745;SDS011;65671;49.976;20.038;2023-11-22T09:19:40;26.33;;;13.27;;
76745;SDS011;65671;49.976;20.038;2023-11-22T09:22:05;17.08;;;9.65;;
76745;SDS011;65671;49.976;20.038;2023-11-22T09:24:31;23.50;;;12.55;;
76745;SDS011;65671;49.976;20.038;2023-11-22T09:26:58;19.20;;;9.90;;
76745;SDS011;65671;49.976;20.038;2023-11-22T09:29:25;18.65;;;9.15;;
76745;SDS011;65671;49.976;20.038;2023-11-22T09:31:51;16.67;;;9.40;;
76745;SDS011;65671;49.976;20.038;2023-11-22T09:34:17;14.43;;;7.95;;
76745;SDS011;65671;49.976;20.038;2023-11-22T09:36:43;17.05;;;9.02;;
76745;SDS011;65671;49.976;20.038;2023-11-22T09:39:09;15.60;;;7.88;;
76745;SDS011;65671;49.976;20.038;2023-11-22T09:41:35;20.27;;;8.75;;
76745;SDS011;65671;49.976;20.038;2023-11-22T09:46:26;32.53;;;13.27;;
76745;SDS011;65671;49.976;20.038;2023-11-22T09:48:52;18.42;;;10.05;;
76745;SDS011;65671;49.976;20.038;2023-11-22T09:51:23;34.42;;;14.98;;
76745;SDS011;65671;49.976;20.038;2023-11-22T09:56:21;21.73;;;10.05;;
76745;SDS011;65671;49.976;20.038;2023-11-22T09:58:52;18.27;;;9.45;;
76745;SDS011;65671;49.976;20.038;2023-11-22T10:01:21;15.38;;;7.70;;
76745;SDS011;65671;49.976;20.038;2023-11-22T10:03:47;15.90;;;8.50;;
76745;SDS011;65671;49.976;20.038;2023-11-22T10:06:14;17.27;;;9.85;;
76745;SDS011;65671;49.976;20.038;2023-11-22T10:08:43;17.77;;;9.38;;
76745;SDS011;65671;49.976;20.038;2023-11-22T10:11:12;18.02;;;9.00;;
76745;SDS011;65671;49.976;20.038;2023-11-22T10:13:40;15.70;;;8.80;;
76745;SDS011;65671;49.976;20.038;2023-11-22T10:16:12;17.05;;;9.35;;
76745;SDS011;65671;49.976;20.038;2023-11-22T10:18:44;16.67;;;8.73;;
76745;SDS011;65671;49.976;20.038;2023-11-22T10:21:21;15.20;;;7.50;;
76745;SDS011;65671;49.976;20.038;2023-11-22T10:24:10;13.98;;;7.90;;
76745;SDS011;65671;49.976;20.038;2023-11-22T10:26:35;14.43;;;7.88;;
76745;SDS011;65671;49.976;20.038;2023-11-22T10:29:01;18.25;;;8.70;;
76745;SDS011;65671;49.976;20.038;2023-11-22T10:31:27;15.80;;;8.38;;
76745;SDS011;65671;49.976;20.038;2023-11-22T10:33:53;15.23;;;8.43;;
76745;SDS011;65671;49.976;20.038;2023-11-22T10:36:22;16.30;;;8.63;;
76745;SDS011;65671;49.976;20.038;2023-11-22T10:38:48;29.40;;;12.50;;
76745;SDS011;65671;49.976;20.038;2023-11-22T10:41:14;25.40;;;12.15;;
76745;SDS011;65671;49.976;20.038;2023-11-22T10:43:39;16.80;;;8.15;;
76745;SDS011;65671;49.976;20.038;2023-11-22T10:46:07;15.68;;;8.57;;
76745;SDS011;65671;49.976;20.038;2023-11-22T10:48:36;15.77;;;8.45;;
76745;SDS011;65671;49.976;20.038;2023-11-22T10:51:02;15.82;;;8.48;;
76745;SDS011;65671;49.976;20.038;2023-11-22T10:53:35;16.85;;;9.23;;
76745;SDS011;65671;49.976;20.038;2023-11-22T10:59:02;14.77;;;7.57;;
76745;SDS011;65671;49.976;20.038;2023-11-22T11:01:27;14.82;;;8.43;;
76745;SDS011;65671;49.976;20.038;2023-11-22T11:04:09;16.13;;;9.23;;
76745;SDS011;65671;49.976;20.038;2023-11-22T11:06:42;21.45;;;9.98;;
76745;SDS011;65671;49.976;20.038;2023-11-22T11:09:11;17.95;;;9.05;;
76745;SDS011;65671;49.976;20.038;2023-11-22T11:11:40;15.80;;;8.65;;
76745;SDS011;65671;49.976;20.038;2023-11-22T11:14:06;18.23;;;8.98;;
76745;SDS011;65671;49.976;20.038;2023-11-22T11:16:36;23.13;;;11.13;;
76745;SDS011;65671;49.976;20.038;2023-11-22T11:19:06;16.48;;;8.35;;
76745;SDS011;65671;49.976;20.038;2023-11-22T11:21:33;15.20;;;8.65;;
76745;SDS011;65671;49.976;20.038;2023-11-22T11:23:58;15.55;;;8.80;;
76745;SDS011;65671;49.976;20.038;2023-11-22T11:26:28;16.50;;;9.45;;
76745;SDS011;65671;49.976;20.038;2023-11-22T11:28:56;19.75;;;9.73;;
76745;SDS011;65671;49.976;20.038;2023-11-22T11:31:22;22.67;;;10.60;;
76745;SDS011;65671;49.976;20.038;2023-11-22T11:36:27;21.30;;;11.98;;
76745;SDS011;65671;49.976;20.038;2023-11-22T11:38:57;15.68;;;9.27;;
76745;SDS011;65671;49.976;20.038;2023-11-22T11:41:29;17.45;;;9.75;;
76745;SDS011;65671;49.976;20.038;2023-11-22T11:43:58;17.88;;;9.43;;
76745;SDS011;65671;49.976;20.038;2023-11-22T11:46:26;14.82;;;7.93;;
76745;SDS011;65671;49.976;20.038;2023-11-22T11:48:52;17.30;;;8.23;;
76745;SDS011;65671;49.976;20.038;2023-11-22T11:51:28;23.42;;;10.23;;
76745;SDS011;65671;49.976;20.038;2023-11-22T11:53:54;13.68;;;7.93;;
76745;SDS011;65671;49.976;20.038;2023-11-22T11:56:21;16.13;;;9.15;;
76745;SDS011;65671;49.976;20.038;2023-11-22T11:58:47;15.35;;;8.45;;
76745;SDS011;65671;49.976;20.038;2023-11-22T12:01:15;15.95;;;8.55;;
76745;SDS011;65671;49.976;20.038;2023-11-22T12:03:42;18.23;;;8.68;;
76745;SDS011;65671;49.976;20.038;2023-11-22T12:06:17;16.00;;;9.65;;
76745;SDS011;65671;49.976;20.038;2023-11-22T12:08:44;20.80;;;10.65;;
76745;SDS011;65671;49.976;20.038;2023-11-22T12:11:12;16.65;;;9.65;;
76745;SDS011;65671;49.976;20.038;2023-11-22T12:13:43;17.48;;;9.45;;
76745;SDS011;65671;49.976;20.038;2023-11-22T12:16:13;17.08;;;8.90;;
76745;SDS011;65671;49.976;20.038;2023-11-22T12:18:57;16.08;;;8.52;;
76745;SDS011;65671;49.976;20.038;2023-11-22T12:21:23;16.88;;;9.55;;
76745;SDS011;65671;49.976;20.038;2023-11-22T12:23:49;18.25;;;8.70;;
76745;SDS011;65671;49.976;20.038;2023-11-22T12:26:15;23.02;;;10.80;;
76745;SDS011;65671;49.976;20.038;2023-11-22T12:28:45;19.35;;;8.93;;
76745;SDS011;65671;49.976;20.038;2023-11-22T12:31:13;23.15;;;10.55;;
76745;SDS011;65671;49.976;20.038;2023-11-22T12:33:40;19.75;;;10.52;;
76745;SDS011;65671;49.976;20.038;2023-11-22T12:39:12;20.15;;;9.85;;
76745;SDS011;65671;49.976;20.038;2023-11-22T12:41:42;21.63;;;10.02;;
76745;SDS011;65671;49.976;20.038;2023-11-22T12:44:10;16.30;;;9.15;;
76745;SDS011;65671;49.976;20.038;2023-11-22T12:49:24;16.15;;;8.55;;
76745;SDS011;65671;49.976;20.038;2023-11-22T12:51:54;18.63;;;9.20;;
76745;SDS011;65671;49.976;20.038;2023-11-22T12:54:22;18.60;;;9.57;;
76745;SDS011;65671;49.976;20.038;2023-11-22T12:56:51;17.77;;;9.18;;
76745;SDS011;65671;49.976;20.038;2023-11-22T12:59:23;20.75;;;9.85;;
76745;SDS011;65671;49.976;20.038;2023-11-22T13:01:52;23.25;;;11.18;;
76745;SDS011;65671;49.976;20.038;2023-11-22T13:04:19;19.48;;;9.73;;
76745;SDS011;65671;49.976;20.038;2023-11-22T13:06:45;21.70;;;10.18;;
76745;SDS011;65671;49.976;20.038;2023-11-22T13:09:10;19.45;;;9.32;;
76745;SDS011;65671;49.976;20.038;2023-11-22T13:11:43;18.80;;;9.38;;
76745;SDS011;65671;49.976;20.038;2023-11-22T13:14:09;19.67;;;10.38;;
76745;SDS011;65671;49.976;20.038;2023-11-22T13:19:02;18.60;;;11.05;;
76745;SDS011;65671;49.976;20.038;2023-11-22T13:23:53;18.17;;;9.23;;
76745;SDS011;65671;49.976;20.038;2023-11-22T13:26:20;16.88;;;9.02;;
76745;SDS011;65671;49.976;20.038;2023-11-22T13:28:46;22.35;;;11.25;;
76745;SDS011;65671;49.976;20.038;2023-11-22T13:33:37;17.27;;;9.57;;
76745;SDS011;65671;49.976;20.038;2023-11-22T13:38:44;16.75;;;9.30;;
76745;SDS011;65671;49.976;20.038;2023-11-22T13:41:09;25.77;;;10.32;;
76745;SDS011;65671;49.976;20.038;2023-11-22T13:43:36;18.48;;;10.50;;
76745;SDS011;65671;49.976;20.038;2023-11-22T13:46:01;19.67;;;9.90;;
76745;SDS011;65671;49.976;20.038;2023-11-22T13:48:27;24.27;;;13.48;;
76745;SDS011;65671;49.976;20.038;2023-11-22T13:50:53;25.42;;;11.90;;
76745;SDS011;65671;49.976;20.038;2023-11-22T13:53:18;22.10;;;12.02;;
76745;SDS011;65671;49.976;20.038;2023-11-22T13:55:46;23.55;;;12.27;;
76745;SDS011;65671;49.976;20.038;2023-11-22T13:58:12;22.73;;;12.65;;
76745;SDS011;65671;49.976;20.038;2023-11-22T14:00:38;25.27;;;12.07;;
76745;SDS011;65671;49.976;20.038;2023-11-22T14:03:04;22.00;;;11.95;;
76745;SDS011;65671;49.976;20.038;2023-11-22T14:05:35;21.75;;;11.38;;
76745;SDS011;65671;49.976;20.038;2023-11-22T14:08:02;31.63;;;13.00;;
76745;SDS011;65671;49.976;20.038;2023-11-22T14:10:29;19.52;;;10.73;;
76745;SDS011;65671;49.976;20.038;2023-11-22T14:12:54;21.58;;;10.63;;
76745;SDS011;65671;49.976;20.038;2023-11-22T14:15:25;25.13;;;12.40;;
76745;SDS011;65671;49.976;20.038;2023-11-22T14:17:50;20.23;;;11.00;;
76745;SDS011;65671;49.976;20.038;2023-11-22T14:20:16;24.15;;;11.52;;
76745;SDS011;65671;49.976;20.038;2023-11-22T14:22:42;21.15;;;10.93;;
76745;SDS011;65671;49.976;20.038;2023-11-22T14:25:08;26.83;;;11.38;;
76745;SDS011;65671;49.976;20.038;2023-11-22T14:27:42;24.95;;;12.10;;
76745;SDS011;65671;49.976;20.038;2023-11-22T14:30:09;21.63;;;12.30;;
76745;SDS011;65671;49.976;20.038;2023-11-22T14:32:39;22.42;;;11.77;;
76745;SDS011;65671;49.976;20.038;2023-11-22T14:35:05;19.85;;;11.48;;
76745;SDS011;65671;49.976;20.038;2023-11-22T14:37:32;25.02;;;12.27;;
76745;SDS011;65671;49.976;20.038;2023-11-22T14:39:59;20.30;;;10.65;;
76745;SDS011;65671;49.976;20.038;2023-11-22T14:44:50;19.53;;;10.93;;
76745;SDS011;65671;49.976;20.038;2023-11-22T14:47:16;21.38;;;10.85;;
76745;SDS011;65671;49.976;20.038;2023-11-22T14:49:48;27.52;;;11.73;;
76745;SDS011;65671;49.976;20.038;2023-11-22T14:52:14;22.08;;;10.98;;
76745;SDS011;65671;49.976;20.038;2023-11-22T14:54:41;23.35;;;10.60;;
76745;SDS011;65671;49.976;20.038;2023-11-22T14:57:07;21.80;;;11.73;;
76745;SDS011;65671;49.976;20.038;2023-11-22T14:59:35;20.13;;;10.32;;
76745;SDS011;65671;49.976;20.038;2023-11-22T15:02:02;25.23;;;11.73;;